Time;durP1;ratioP1;P1;durP2;ratioP2;P2;SDS_P1;SDS_P2;PMS_P1;PMS_P2;Temp;Humidity;BMP_temperature;BMP_pressure;BME280_temperature;BME280_humidity;BME280_pressure;Samples;Min_cycle;Max_cycle;Signal;HPM_P1;HPM_P2
2022/12/03 00:00:48;;;;;;;81.55;37.75;;;0.10;99.90;;;;;;5069913;28;20487;-58
2022/12/03 00:03:14;;;;;;;82.78;36.67;;;0.10;99.90;;;;;;5050338;28;20046;-57
2022/12/03 00:05:40;;;;;;;80.13;36.97;;;0.10;99.90;;;;;;5066325;28;20016;-56
2022/12/03 00:08:05;;;;;;;79.07;35.88;;;0.10;99.90;;;;;;5068587;28;20540;-54
2022/12/03 00:10:31;;;;;;;81.40;37.40;;;0.10;99.90;;;;;;5068750;28;20054;-51
2022/12/03 00:12:57;;;;;;;81.35;36.55;;;0.20;99.90;;;;;;5068334;28;20056;-53
2022/12/03 00:15:23;;;;;;;80.75;37.00;;;0.20;99.90;;;;;;5068199;28;20119;-54
2022/12/03 00:17:49;;;;;;;79.72;36.88;;;0.20;99.90;;;;;;5068515;28;20493;-53
2022/12/03 00:20:20;;;;;;;76.10;36.47;;;0.20;99.90;;;;;;5068011;28;20040;-52
2022/12/03 00:22:46;;;;;;;76.25;36.35;;;0.20;99.90;;;;;;5056556;28;20037;-54
2022/12/03 00:25:12;;;;;;;80.30;35.95;;;0.20;99.90;;;;;;5049637;28;20021;-52
2022/12/03 00:27:37;;;;;;;82.82;35.45;;;0.20;99.90;;;;;;5049443;28;20128;-54
2022/12/03 00:30:04;;;;;;;76.32;35.45;;;0.20;99.90;;;;;;5049054;28;20029;-55
2022/12/03 00:32:30;;;;;;;;;;;0.30;99.90;;;;;;5049957;28;20630;-59
2022/12/03 00:34:55;;;;;;;74.90;35.03;;;0.20;99.90;;;;;;5049318;28;19931;-54
2022/12/03 00:37:21;;;;;;;80.07;37.78;;;0.20;99.90;;;;;;5049248;28;20041;-53
2022/12/03 00:39:47;;;;;;;73.82;35.45;;;0.20;99.90;;;;;;5055995;28;20029;-53
2022/12/03 00:42:13;;;;;;;79.63;36.88;;;0.20;99.90;;;;;;5056027;28;20025;-55
2022/12/03 00:44:38;;;;;;;78.15;35.08;;;0.30;99.90;;;;;;5038037;28;20035;-54
2022/12/03 00:47:04;;;;;;;81.82;36.60;;;0.20;99.90;;;;;;5055727;28;20024;-54
2022/12/03 00:49:30;;;;;;;77.90;37.72;;;0.10;99.90;;;;;;5055888;28;20021;-55
2022/12/03 00:51:55;;;;;;;76.43;37.45;;;0.20;99.90;;;;;;5055954;28;20419;-55
2022/12/03 00:54:21;;;;;;;85.40;38.42;;;0.20;99.90;;;;;;5055788;28;20028;-58
2022/12/03 00:56:47;;;;;;;81.65;38.17;;;0.20;99.90;;;;;;5055820;28;20037;-56
2022/12/03 00:59:13;;;;;;;78.30;37.05;;;0.20;99.90;;;;;;5055554;28;20388;-57
2022/12/03 01:01:38;;;;;;;84.72;38.97;;;0.20;99.90;;;;;;5055905;28;20476;-56
2022/12/03 01:04:04;;;;;;;79.63;38.33;;;0.20;99.90;;;;;;5055881;28;20028;-57
2022/12/03 01:06:30;;;;;;;81.68;37.10;;;0.20;99.90;;;;;;5055773;28;20060;-56
2022/12/03 01:08:55;;;;;;;73.53;35.25;;;0.20;99.90;;;;;;5055911;28;20103;-55
2022/12/03 01:11:36;;;;;;;77.88;36.58;;;0.20;99.90;;;;;;5055593;28;20481;-53
2022/12/03 01:14:03;;;;;;;79.10;36.00;;;0.20;99.90;;;;;;5055843;28;20060;-54
2022/12/03 01:16:28;;;;;;;83.00;37.03;;;0.30;99.90;;;;;;5055623;28;20116;-57
2022/12/03 01:18:54;;;;;;;73.97;36.20;;;0.20;99.90;;;;;;5055841;28;20111;-55
2022/12/03 01:21:20;;;;;;;76.97;36.20;;;0.30;99.90;;;;;;5055833;28;20609;-54
2022/12/03 01:23:45;;;;;;;89.20;38.15;;;0.20;99.90;;;;;;5075517;28;20436;-53
2022/12/03 01:26:11;;;;;;;81.13;37.35;;;0.20;99.90;;;;;;5075749;28;20032;-53
2022/12/03 01:28:36;;;;;;;89.50;39.30;;;0.20;99.90;;;;;;5075654;28;20089;-53
2022/12/03 01:33:46;;;;;;;76.05;36.05;;;0.30;99.90;;;;;;5075723;28;20035;-58
2022/12/03 01:36:12;;;;;;;86.93;41.50;;;0.20;99.90;;;;;;5075653;28;20052;-58
2022/12/03 01:38:38;;;;;;;83.82;38.58;;;0.30;99.90;;;;;;5075547;28;20515;-54
2022/12/03 01:41:03;;;;;;;82.13;36.45;;;0.20;99.90;;;;;;5075361;28;20028;-53
2022/12/03 01:43:29;;;;;;;80.13;35.42;;;0.20;99.90;;;;;;5057334;28;20383;-55
2022/12/03 01:45:55;;;;;;;76.10;36.50;;;0.20;99.90;;;;;;5075575;28;20033;-54
2022/12/03 01:48:21;;;;;;;72.72;34.22;;;0.20;99.90;;;;;;5075397;28;20116;-53
2022/12/03 01:50:47;;;;;;;76.18;36.70;;;0.30;99.90;;;;;;5071908;28;20464;-53
2022/12/03 01:53:15;;;;;;;75.97;37.25;;;0.30;99.90;;;;;;5072750;28;20680;-55
2022/12/03 01:55:44;;;;;;;75.90;38.40;;;0.30;99.90;;;;;;5072358;28;20029;-59
2022/12/03 01:58:13;;;;;;;86.53;37.53;;;0.30;99.90;;;;;;5072351;28;20043;-52
2022/12/03 02:00:39;;;;;;;73.85;34.50;;;0.30;99.90;;;;;;5054034;28;20020;-57
2022/12/03 02:03:17;;;;;;;74.37;35.20;;;0.30;99.90;;;;;;5072859;28;20206;-55
2022/12/03 02:05:43;;;;;;;82.70;37.17;;;0.30;99.90;;;;;;5072984;28;20438;-54
2022/12/03 02:08:27;;;;;;;78.47;37.60;;;0.40;99.90;;;;;;5072437;28;20041;-53
2022/12/03 02:10:52;;;;;;;80.13;36.20;;;0.40;99.90;;;;;;5053880;28;20062;-58
2022/12/03 02:13:18;;;;;;;74.50;36.10;;;0.40;99.90;;;;;;5071844;28;20021;-59
2022/12/03 02:15:44;;;;;;;75.35;36.53;;;0.40;99.90;;;;;;5071708;28;20109;-57
2022/12/03 02:18:10;;;;;;;79.25;37.25;;;0.50;99.90;;;;;;5053809;28;20630;-57
2022/12/03 02:20:59;;;;;;;79.18;36.13;;;0.50;99.90;;;;;;5071582;28;20051;-60
2022/12/03 02:24:01;;;;;;;71.63;33.38;;;0.50;99.90;;;;;;5009728;28;20075;-57
2022/12/03 02:26:26;;;;;;;79.30;36.75;;;0.50;99.90;;;;;;5007047;28;20040;-55
2022/12/03 02:28:52;;;;;;;76.95;35.47;;;0.50;99.90;;;;;;5051532;28;20424;-56
2022/12/03 02:31:18;;;;;;;81.20;36.10;;;0.40;99.90;;;;;;5051396;28;20037;-57
2022/12/03 02:33:44;;;;;;;83.30;38.67;;;0.40;99.90;;;;;;5051678;28;20074;-58
2022/12/03 02:36:10;;;;;;;78.10;37.40;;;0.40;99.90;;;;;;5051420;28;20480;-59
2022/12/03 02:38:36;;;;;;;81.35;38.30;;;0.50;99.90;;;;;;5051487;28;20032;-53
2022/12/03 02:41:07;;;;;;;88.93;40.28;;;0.40;99.90;;;;;;5051352;28;20025;-55
2022/12/03 02:43:32;;;;;;;77.32;37.58;;;0.50;99.90;;;;;;5051619;28;20078;-59
2022/12/03 02:46:01;;;;;;;77.13;35.40;;;0.50;99.90;;;;;;5033267;28;20029;-58
2022/12/03 02:48:38;;;;;;;79.55;37.83;;;0.50;99.90;;;;;;5033377;28;20066;-55
2022/12/03 02:51:07;;;;;;;80.32;36.42;;;0.50;99.90;;;;;;5051361;28;20021;-53
2022/12/03 02:53:43;;;;;;;70.70;35.50;;;0.50;99.90;;;;;;5051123;28;20507;-59
2022/12/03 02:56:12;;;;;;;73.47;36.08;;;0.50;99.90;;;;;;5051165;28;20404;-58
2022/12/03 02:58:40;;;;;;;75.85;35.50;;;0.50;99.90;;;;;;5033085;28;20474;-58
2022/12/03 03:01:08;;;;;;;72.18;34.40;;;0.40;99.90;;;;;;5050226;28;20095;-59
2022/12/03 03:03:35;;;;;;;70.53;34.65;;;0.50;99.90;;;;;;5057108;28;20095;-59
2022/12/03 03:06:02;;;;;;;76.63;35.30;;;0.50;99.90;;;;;;5068054;28;20024;-56
2022/12/03 03:08:29;;;;;;;73.22;35.90;;;0.50;99.90;;;;;;5051972;28;20420;-53
2022/12/03 03:10:57;;;;;;;74.28;36.60;;;0.50;99.90;;;;;;5059326;28;20400;-60
2022/12/03 03:13:23;;;;;;;90.95;41.35;;;0.50;99.90;;;;;;5061118;28;20816;-53
2022/12/03 03:15:49;;;;;;;88.93;40.80;;;0.40;99.90;;;;;;5049727;28;20028;-54
2022/12/03 03:18:15;;;;;;;89.93;40.92;;;0.40;99.90;;;;;;5059425;28;20815;-55
2022/12/03 03:20:42;;;;;;;97.72;42.20;;;0.50;99.90;;;;;;5060610;28;20044;-54
2022/12/03 03:23:10;;;;;;;87.10;39.20;;;0.50;99.90;;;;;;5059075;28;20411;-57
2022/12/03 03:25:38;;;;;;;87.32;39.08;;;0.40;99.90;;;;;;5059271;28;20063;-56
2022/12/03 03:28:04;;;;;;;84.38;38.25;;;0.40;99.90;;;;;;5060593;28;20027;-59
2022/12/03 03:30:31;;;;;;;81.68;35.67;;;0.40;99.90;;;;;;5059343;28;20384;-54
2022/12/03 03:32:57;;;;;;;76.70;37.00;;;0.40;99.90;;;;;;5040216;28;20032;-57
2022/12/03 03:35:24;;;;;;;80.90;38.33;;;0.50;99.90;;;;;;5050812;28;20029;-58
2022/12/03 03:37:50;;;;;;;68.15;33.17;;;0.50;99.90;;;;;;5050766;28;20064;-54
2022/12/03 03:40:16;;;;;;;72.65;33.88;;;0.40;99.90;;;;;;5050502;28;20021;-58
2022/12/03 03:42:42;;;;;;;67.57;32.85;;;0.50;99.90;;;;;;5050857;28;20058;-58
2022/12/03 03:45:08;;;;;;;67.85;34.78;;;0.40;99.90;;;;;;5061077;28;20033;-59
2022/12/03 03:47:34;;;;;;;71.25;34.97;;;0.40;99.90;;;;;;5050805;28;20421;-56
2022/12/03 03:50:00;;;;;;;74.10;34.13;;;0.50;99.90;;;;;;5050563;28;20491;-55
2022/12/03 03:52:26;;;;;;;71.85;33.92;;;0.50;99.90;;;;;;5050571;28;20027;-55
2022/12/03 03:54:52;;;;;;;68.18;31.70;;;0.50;99.90;;;;;;5050773;28;20020;-54
2022/12/03 03:57:17;;;;;;;66.78;33.90;;;0.40;99.90;;;;;;5050244;28;20071;-55
2022/12/03 03:59:43;;;;;;;72.60;33.85;;;0.50;99.90;;;;;;5050427;28;20480;-58
2022/12/03 04:02:23;;;;;;;61.22;30.55;;;0.40;99.90;;;;;;5050266;28;20047;-58
2022/12/03 04:04:50;;;;;;;70.80;32.50;;;0.50;99.90;;;;;;5050228;28;20028;-57
2022/12/03 04:07:16;;;;;;;76.63;35.03;;;0.40;99.90;;;;;;5050176;28;20029;-57
2022/12/03 04:09:42;;;;;;;67.03;31.63;;;0.50;99.90;;;;;;5050425;28;20380;-56
2022/12/03 04:14:53;;;;;;;72.18;34.58;;;0.50;99.90;;;;;;5050003;28;20495;-56
2022/12/03 04:17:19;;;;;;;76.07;33.70;;;0.50;99.90;;;;;;5049812;28;20120;-53
2022/12/03 04:19:44;;;;;;;75.47;32.88;;;0.50;99.90;;;;;;5050133;28;20116;-54
2022/12/03 04:28:47;;;;;;;66.05;32.25;;;0.50;99.90;;;;;;5054951;28;20063;-57
2022/12/03 04:30:34;;;;;;;62.20;31.13;;;0.50;99.90;;;;;;4997684;28;20117;-55
2022/12/03 04:35:44;;;;;;;65.28;32.35;;;0.50;99.90;;;;;;5069944;28;20502;-57
2022/12/03 04:38:12;;;;;;;63.22;31.70;;;0.50;99.90;;;;;;5052024;28;20025;-58
2022/12/03 04:43:22;;;;;;;67.28;32.78;;;0.50;99.90;;;;;;5070136;28;20441;-56
2022/12/03 04:45:48;;;;;;;65.88;32.63;;;0.50;99.90;;;;;;5069957;28;20021;-55
2022/12/03 04:48:14;;;;;;;69.05;33.53;;;0.60;99.90;;;;;;5069645;28;20036;-57
2022/12/03 04:50:39;;;;;;;63.30;32.25;;;0.50;99.90;;;;;;5069977;28;20029;-55
2022/12/03 04:53:05;;;;;;;67.35;32.75;;;0.60;99.90;;;;;;5070030;28;20476;-53
2022/12/03 04:55:30;;;;;;;70.88;34.92;;;0.60;99.90;;;;;;5069800;28;20476;-54
2022/12/03 04:57:56;;;;;;;72.45;34.13;;;0.60;99.90;;;;;;5069837;28;20043;-54
2022/12/03 05:00:22;;;;;;;74.63;33.75;;;0.60;99.90;;;;;;5069600;28;20020;-57
2022/12/03 05:02:47;;;;;;;76.57;33.63;;;0.60;99.90;;;;;;5069844;28;20035;-57
2022/12/03 05:05:13;;;;;;;68.97;33.67;;;0.50;99.90;;;;;;5069741;28;20028;-58
2022/12/03 05:07:39;;;;;;;74.70;35.17;;;0.60;99.90;;;;;;5069734;28;20024;-57
2022/12/03 05:10:05;;;;;;;69.53;34.88;;;0.60;99.90;;;;;;5069766;28;20024;-56
2022/12/03 05:12:31;;;;;;;76.28;35.47;;;0.60;99.90;;;;;;5069493;28;20021;-57
2022/12/03 05:14:56;;;;;;;67.68;33.65;;;0.50;99.90;;;;;;5069498;28;20039;-57
2022/12/03 05:17:22;;;;;;;72.82;34.40;;;0.50;99.90;;;;;;5070231;28;20182;-57
2022/12/03 05:22:32;;;;;;;77.03;34.85;;;0.60;99.90;;;;;;5053294;28;20183;-53
2022/12/03 05:24:57;;;;;;;78.32;34.80;;;0.60;99.90;;;;;;5050501;28;20140;-53
2022/12/03 05:27:23;;;;;;;72.85;33.72;;;0.50;99.90;;;;;;5053221;28;20020;-55
2022/12/03 05:29:49;;;;;;;71.28;35.65;;;0.60;99.90;;;;;;5053239;28;20028;-56
2022/12/03 05:32:14;;;;;;;72.13;34.78;;;0.60;99.90;;;;;;5052907;28;20571;-57
2022/12/03 05:34:40;;;;;;;78.60;35.15;;;0.60;99.90;;;;;;5053025;28;20032;-56
2022/12/03 05:37:05;;;;;;;76.13;34.60;;;0.50;99.90;;;;;;5053083;28;20039;-55
2022/12/03 05:39:31;;;;;;;74.05;34.78;;;0.60;99.90;;;;;;5053290;28;20021;-52
2022/12/03 05:44:41;;;;;;;77.50;36.25;;;0.60;99.90;;;;;;5053173;28;20083;-57
2022/12/03 05:47:06;;;;;;;73.20;33.10;;;0.50;99.90;;;;;;5053216;28;20028;-56
2022/12/03 05:49:32;;;;;;;76.57;35.35;;;0.50;99.90;;;;;;5052839;28;20032;-57
2022/12/03 05:51:58;;;;;;;75.00;34.05;;;0.50;99.90;;;;;;5052633;28;20484;-57
2022/12/03 05:54:23;;;;;;;72.95;34.50;;;0.50;99.90;;;;;;5052834;28;20021;-54
2022/12/03 05:56:49;;;;;;;77.97;35.10;;;0.60;99.90;;;;;;5052656;28;20045;-52
2022/12/03 05:59:14;;;;;;;80.47;37.15;;;0.50;99.90;;;;;;5052599;28;20021;-54
2022/12/03 06:01:40;;;;;;;76.70;36.00;;;0.50;99.90;;;;;;5052697;28;20475;-54
2022/12/03 06:04:06;;;;;;;85.80;36.05;;;0.50;99.90;;;;;;5052617;28;20021;-56
2022/12/03 06:06:31;;;;;;;82.57;35.95;;;0.50;99.90;;;;;;5052552;28;20079;-59
2022/12/03 06:08:57;;;;;;;84.28;36.70;;;0.50;99.90;;;;;;5034507;28;20212;-59
2022/12/03 06:11:22;;;;;;;79.65;35.42;;;0.50;99.90;;;;;;5052386;28;20045;-57
2022/12/03 06:13:48;;;;;;;90.80;37.38;;;0.50;99.90;;;;;;5052437;28;20032;-54
2022/12/03 06:16:14;;;;;;;93.55;42.13;;;0.50;99.90;;;;;;5052126;28;20120;-53
2022/12/03 06:18:39;;;;;;;86.85;39.15;;;0.40;99.90;;;;;;5052182;28;20024;-55
2022/12/03 06:21:05;;;;;;;84.22;35.90;;;0.40;99.90;;;;;;5055618;28;20094;-53
2022/12/03 06:23:31;;;;;;;86.30;38.58;;;0.40;99.90;;;;;;5072334;28;20025;-54
2022/12/03 06:25:56;;;;;;;91.05;39.55;;;0.30;99.90;;;;;;5072152;28;20029;-56
2022/12/03 06:28:22;;;;;;;96.32;41.45;;;0.40;99.90;;;;;;5071963;28;20488;-59
2022/12/03 06:30:48;;;;;;;85.28;39.53;;;0.30;99.90;;;;;;5072237;28;20392;-57
2022/12/03 06:33:13;;;;;;;99.75;39.33;;;0.30;99.90;;;;;;5071786;28;20529;-56
2022/12/03 06:35:39;;;;;;;85.15;39.03;;;0.30;99.90;;;;;;5053792;28;20025;-55
2022/12/03 06:38:04;;;;;;;84.75;38.83;;;0.30;99.90;;;;;;5071893;28;20032;-55
2022/12/03 06:40:30;;;;;;;93.63;39.60;;;0.30;99.90;;;;;;5071891;28;20490;-53
2022/12/03 06:42:56;;;;;;;86.38;40.35;;;0.40;99.90;;;;;;5071802;28;20032;-56
2022/12/03 06:45:21;;;;;;;99.05;42.50;;;0.40;99.90;;;;;;5071865;28;20017;-57
2022/12/03 06:47:47;;;;;;;98.60;42.72;;;0.40;99.90;;;;;;5071852;28;20127;-59
2022/12/03 06:50:12;;;;;;;96.65;42.67;;;0.40;99.90;;;;;;5071641;28;20032;-57
2022/12/03 06:52:38;;;;;;;93.57;42.85;;;0.40;99.90;;;;;;5071788;28;20025;-57
2022/12/03 06:55:04;;;;;;;99.97;44.10;;;0.40;99.90;;;;;;5071885;28;20093;-56
2022/12/03 06:57:30;;;;;;;106.28;45.28;;;0.40;99.90;;;;;;5071637;28;20293;-58
2022/12/03 06:59:56;;;;;;;103.80;44.15;;;0.40;99.90;;;;;;5071613;28;20472;-58
2022/12/03 07:02:22;;;;;;;113.70;47.28;;;0.30;99.90;;;;;;5053399;28;20468;-57
2022/12/03 07:04:47;;;;;;;107.53;45.83;;;0.30;99.90;;;;;;5071214;28;20490;-58
2022/12/03 07:07:13;;;;;;;108.72;44.60;;;0.40;99.90;;;;;;5071177;28;20039;-56
2022/12/03 07:09:39;;;;;;;104.18;42.58;;;0.40;99.90;;;;;;5071389;28;20100;-56
2022/12/03 07:12:05;;;;;;;107.38;43.17;;;0.30;99.90;;;;;;5071205;28;20040;-55
2022/12/03 07:14:30;;;;;;;106.15;44.13;;;0.30;99.90;;;;;;5071283;28;20052;-54
2022/12/03 07:16:56;;;;;;;101.18;41.65;;;0.30;99.90;;;;;;5071238;28;20036;-54
2022/12/03 07:19:22;;;;;;;112.85;45.10;;;0.20;99.90;;;;;;5071213;28;20021;-54
2022/12/03 07:21:47;;;;;;;113.18;44.05;;;0.20;99.90;;;;;;5061597;28;20428;-54
2022/12/03 07:24:13;;;;;;;106.00;42.30;;;0.20;99.90;;;;;;5050986;28;20468;-55
2022/12/03 07:26:39;;;;;;;110.40;44.20;;;0.10;99.90;;;;;;5051130;28;20475;-58
2022/12/03 07:29:04;;;;;;;109.20;44.47;;;0.10;99.90;;;;;;5033080;28;20108;-57
2022/12/03 07:31:30;;;;;;;112.35;42.75;;;0.20;99.90;;;;;;5050884;28;20470;-58
2022/12/03 07:33:56;;;;;;;101.75;41.80;;;0.10;99.90;;;;;;5051134;28;20021;-57
2022/12/03 07:36:22;;;;;;;113.38;43.50;;;0.20;99.90;;;;;;5032825;28;20032;-59
2022/12/03 07:38:48;;;;;;;104.88;44.65;;;0.20;99.90;;;;;;5050855;28;20075;-58
2022/12/03 07:41:14;;;;;;;104.25;44.40;;;0.20;99.90;;;;;;5052905;28;20036;-57
2022/12/03 07:43:39;;;;;;;98.50;40.30;;;0.30;99.90;;;;;;5058653;28;20020;-56
2022/12/03 07:46:05;;;;;;;102.63;42.00;;;0.20;99.90;;;;;;5049631;28;20028;-56
2022/12/03 07:48:30;;;;;;;115.63;46.45;;;0.30;99.90;;;;;;5059299;28;20025;-56
2022/12/03 07:50:56;;;;;;;106.13;43.28;;;0.20;99.90;;;;;;5058869;28;20058;-55
2022/12/03 07:53:22;;;;;;;108.47;44.38;;;0.20;99.90;;;;;;5059207;28;20088;-53
2022/12/03 07:55:47;;;;;;;115.28;43.50;;;0.20;99.90;;;;;;5059837;28;20465;-53
2022/12/03 07:58:13;;;;;;;114.15;44.65;;;0.30;99.90;;;;;;5058254;28;20029;-53
2022/12/03 08:00:39;;;;;;;112.20;46.10;;;0.30;99.90;;;;;;5059140;28;20377;-56
2022/12/03 08:03:04;;;;;;;108.20;44.80;;;0.40;99.90;;;;;;5059507;28;20021;-57
2022/12/03 08:05:30;;;;;;;115.03;45.53;;;0.40;99.90;;;;;;5058148;28;20174;-56
2022/12/03 08:07:56;;;;;;;124.40;46.03;;;0.50;99.90;;;;;;5058296;28;20492;-56
2022/12/03 08:10:24;;;;;;;115.80;45.35;;;0.40;99.90;;;;;;5058755;28;20028;-57
2022/12/03 08:12:49;;;;;;;107.15;42.92;;;0.40;99.90;;;;;;5059973;28;20020;-57
2022/12/03 08:15:18;;;;;;;111.45;44.53;;;0.50;99.90;;;;;;5058108;28;20102;-56
2022/12/03 08:17:46;;;;;;;115.90;46.47;;;0.40;99.90;;;;;;5058345;28;20094;-54
2022/12/03 08:20:15;;;;;;;115.45;43.22;;;0.50;99.90;;;;;;5060528;28;20040;-55
2022/12/03 08:22:42;;;;;;;103.55;41.97;;;0.50;99.90;;;;;;5059586;28;20071;-58
2022/12/03 08:25:26;;;;;;;105.97;43.17;;;0.50;99.90;;;;;;5063877;28;20032;-57
2022/12/03 08:27:56;;;;;;;111.22;43.53;;;0.50;99.90;;;;;;5062941;28;20020;-55
2022/12/03 08:30:22;;;;;;;116.82;45.35;;;0.40;99.90;;;;;;5058535;28;20031;-54
2022/12/03 08:32:48;;;;;;;116.43;45.95;;;0.50;99.90;;;;;;5058077;28;20107;-54
2022/12/03 08:35:22;;;;;;;119.05;49.67;;;0.50;99.90;;;;;;5050190;28;20452;-57
2022/12/03 08:38:07;;;;;;;122.97;48.10;;;0.50;99.90;;;;;;5059106;28;20048;-56
2022/12/03 08:40:35;;;;;;;126.07;50.05;;;0.40;99.90;;;;;;5048898;28;20035;-53
2022/12/03 08:43:12;;;;;;;124.82;49.05;;;0.30;99.90;;;;;;5057954;28;20079;-52
2022/12/03 08:45:40;;;;;;;121.38;48.80;;;0.30;99.90;;;;;;5057839;28;20036;-55
2022/12/03 08:48:18;;;;;;;132.85;48.45;;;0.30;99.90;;;;;;5058257;28;20028;-53
2022/12/03 08:50:44;;;;;;;118.32;45.83;;;0.20;99.90;;;;;;5057162;28;20075;-53
2022/12/03 08:53:12;;;;;;;124.57;46.63;;;0.20;99.90;;;;;;5059313;28;20502;-56
2022/12/03 08:55:50;;;;;;;120.70;46.50;;;0.20;99.90;;;;;;5051226;28;20476;-54
2022/12/03 08:58:23;;;;;;;138.05;50.58;;;0.20;99.90;;;;;;5067826;28;20028;-54
2022/12/03 09:00:58;;;;;;;123.20;45.88;;;0.20;99.90;;;;;;5071044;28;20024;-55
2022/12/03 09:03:28;;;;;;;125.25;49.95;;;0.10;99.90;;;;;;5072363;28;20019;-55
2022/12/03 09:05:54;;;;;;;124.65;47.70;;;0.10;99.90;;;;;;5055968;28;20029;-53
2022/12/03 09:08:20;;;;;;;140.48;51.95;;;0.10;99.90;;;;;;5072832;28;20024;-54
2022/12/03 09:10:45;;;;;;;136.40;50.65;;;0.10;99.90;;;;;;5069557;28;20116;-58
2022/12/03 09:13:11;;;;;;;139.10;52.45;;;0.20;99.90;;;;;;5067268;28;20101;-56
2022/12/03 09:15:36;;;;;;;116.63;46.00;;;0.30;99.90;;;;;;5055372;28;20023;-57
2022/12/03 09:18:02;;;;;;;125.18;47.55;;;0.20;99.90;;;;;;5072706;28;20312;-55
2022/12/03 09:20:28;;;;;;;114.18;47.13;;;0.30;99.90;;;;;;5054476;28;20025;-55
2022/12/03 09:22:54;;;;;;;122.75;47.88;;;0.30;99.90;;;;;;5072758;28;20032;-57
2022/12/03 09:25:19;;;;;;;115.93;45.83;;;0.40;99.90;;;;;;5068524;28;20357;-54
2022/12/03 09:27:45;;;;;;;124.55;46.33;;;0.40;99.90;;;;;;5062877;28;20415;-54
2022/12/03 09:30:11;;;;;;;113.38;45.75;;;0.30;99.90;;;;;;5052376;28;20546;-53
2022/12/03 09:32:36;;;;;;;105.50;42.47;;;0.40;99.90;;;;;;5060794;28;20113;-53
2022/12/03 09:35:03;;;;;;;111.18;43.85;;;0.40;99.90;;;;;;5063155;28;20017;-56
2022/12/03 09:37:30;;;;;;;114.30;46.63;;;0.40;99.90;;;;;;5061622;28;20029;-57
2022/12/03 09:39:56;;;;;;;110.13;43.45;;;0.40;99.90;;;;;;5062033;28;20373;-55
2022/12/03 09:42:21;;;;;;;105.93;43.20;;;0.40;99.90;;;;;;5072896;28;20021;-58
2022/12/03 09:44:47;;;;;;;107.97;42.65;;;0.40;99.90;;;;;;5073088;28;20024;-57
2022/12/03 09:47:12;;;;;;;97.90;42.90;;;0.50;99.90;;;;;;5072829;28;20090;-58
2022/12/03 09:49:39;;;;;;;106.63;42.60;;;0.50;99.90;;;;;;5072615;28;20029;-59
2022/12/03 09:52:06;;;;;;;112.82;41.95;;;0.50;99.90;;;;;;5067683;28;20787;-56
2022/12/03 09:54:32;;;;;;;113.20;44.83;;;0.50;99.90;;;;;;5061525;28;20021;-56
2022/12/03 09:57:01;;;;;;;109.97;43.50;;;0.50;99.90;;;;;;5060169;28;20547;-57
2022/12/03 09:59:32;;;;;;;104.88;42.88;;;0.50;99.90;;;;;;5060006;28;20361;-53
2022/12/03 10:01:58;;;;;;;118.72;45.92;;;0.50;99.90;;;;;;5054735;28;20059;-59
2022/12/03 10:04:23;;;;;;;105.63;43.60;;;0.60;99.90;;;;;;5052442;28;20025;-57
2022/12/03 10:06:50;;;;;;;115.43;42.67;;;0.60;99.90;;;;;;5052513;28;20040;-59
2022/12/03 10:09:22;;;;;;;114.15;44.50;;;0.60;99.90;;;;;;5052525;28;20017;-55
2022/12/03 10:11:48;;;;;;;122.13;47.08;;;0.70;99.90;;;;;;5051263;28;20119;-57
2022/12/03 10:14:17;;;;;;;119.43;46.50;;;0.80;99.90;;;;;;5063553;28;20521;-57
2022/12/03 10:16:44;;;;;;;127.80;48.67;;;0.80;99.90;;;;;;5062489;28;20070;-58
2022/12/03 10:19:27;;;;;;;122.82;46.13;;;0.80;99.90;;;;;;5061377;28;20111;-60
2022/12/03 10:21:54;;;;;;;116.60;46.40;;;0.80;99.90;;;;;;5061965;28;20049;-55
2022/12/03 10:24:20;;;;;;;111.93;45.15;;;0.90;99.90;;;;;;5060014;28;20045;-59
2022/12/03 10:26:47;;;;;;;126.05;46.92;;;0.90;99.90;;;;;;5061227;28;20447;-56
2022/12/03 10:29:21;;;;;;;131.40;48.65;;;1.00;99.90;;;;;;5061544;28;20053;-60
2022/12/03 10:32:07;;;;;;;121.72;49.28;;;0.90;99.90;;;;;;5056319;28;20032;-54
2022/12/03 10:34:38;;;;;;;124.28;50.45;;;0.90;99.90;;;;;;5052008;28;20025;-54
2022/12/03 10:37:19;;;;;;;129.00;51.95;;;1.00;99.90;;;;;;5052091;28;20039;-57
2022/12/03 10:39:55;;;;;;;126.90;51.10;;;1.00;99.90;;;;;;5053359;28;20100;-52
2022/12/03 10:42:21;;;;;;;122.90;51.55;;;1.10;99.90;;;;;;5053880;28;20074;-56
2022/12/03 10:44:47;;;;;;;116.03;48.73;;;1.20;99.90;;;;;;5072242;28;20074;-59
2022/12/03 10:47:13;;;;;;;127.13;49.05;;;1.30;99.90;;;;;;5072078;28;20025;-59
2022/12/03 10:49:41;;;;;;;115.53;49.40;;;1.30;99.90;;;;;;5068246;28;20028;-59
2022/12/03 10:52:22;;;;;;;125.35;49.50;;;1.40;99.90;;;;;;5059844;28;20025;-59
2022/12/03 10:54:49;;;;;;;113.13;44.75;;;1.50;99.90;;;;;;5059778;28;20102;-59
2022/12/03 10:57:15;;;;;;;120.57;48.70;;;1.40;99.90;;;;;;5059735;28;20029;-53
2022/12/03 10:59:41;;;;;;;110.47;45.25;;;1.40;99.90;;;;;;5061258;28;20104;-53
2022/12/03 11:02:20;;;;;;;118.53;47.60;;;1.50;99.90;;;;;;5059802;28;20412;-58
2022/12/03 11:04:47;;;;;;;113.15;47.53;;;1.50;99.90;;;;;;5059520;28;20035;-58
2022/12/03 11:07:15;;;;;;;106.77;46.07;;;1.60;99.90;;;;;;5059816;28;20439;-60
2022/12/03 11:09:43;;;;;;;122.07;47.45;;;1.60;99.90;;;;;;5060982;28;20435;-56
2022/12/03 11:12:21;;;;;;;127.38;47.75;;;1.70;99.90;;;;;;5059778;28;20056;-60
2022/12/03 11:14:50;;;;;;;121.25;49.63;;;1.70;99.90;;;;;;5058361;28;20053;-60
2022/12/03 11:17:43;;;;;;;128.63;50.95;;;1.80;99.90;;;;;;5058872;28;20122;-55
2022/12/03 11:20:12;;;;;;;108.70;46.78;;;1.80;99.90;;;;;;5057386;28;20033;-55
2022/12/03 11:22:48;;;;;;;109.55;45.78;;;1.80;99.90;;;;;;5057881;28;20488;-54
2022/12/03 11:25:26;;;;;;;124.20;48.10;;;1.70;99.90;;;;;;5058645;28;20025;-57
2022/12/03 11:28:10;;;;;;;;;;;1.70;99.90;;;;;;5058916;28;20021;-54
2022/12/03 11:30:47;;;;;;;113.40;45.10;;;1.70;99.90;;;;;;5058580;28;20366;-60
2022/12/03 11:33:35;;;;;;;113.90;46.80;;;1.70;99.90;;;;;;5058533;28;20024;-57
2022/12/03 11:36:04;;;;;;;114.18;45.38;;;1.60;99.90;;;;;;5059006;28;20024;-55
2022/12/03 11:38:46;;;;;;;102.13;43.47;;;1.60;99.90;;;;;;5058513;28;20028;-58
2022/12/03 11:41:14;;;;;;;101.38;42.97;;;1.60;99.90;;;;;;5060393;28;20087;-57
2022/12/03 11:43:51;;;;;;;113.55;45.53;;;1.60;99.90;;;;;;5058994;28;20061;-57
2022/12/03 11:46:46;;;;;;;107.95;45.33;;;1.60;99.90;;;;;;5058480;28;20041;-59
2022/12/03 11:49:34;;;;;;;110.78;44.38;;;1.60;99.90;;;;;;5060294;28;20039;-52
2022/12/03 11:52:02;;;;;;;102.97;43.80;;;1.60;99.90;;;;;;5058857;28;20025;-56
2022/12/03 11:54:33;;;;;;;114.95;49.25;;;1.60;99.90;;;;;;5058561;28;20036;-52
2022/12/03 11:56:58;;;;;;;113.40;48.17;;;1.70;99.90;;;;;;5058623;28;20029;-54
2022/12/03 11:59:26;;;;;;;122.80;48.72;;;1.90;99.90;;;;;;5058922;28;20035;-52
2022/12/03 12:01:52;;;;;;;114.53;49.17;;;1.90;99.90;;;;;;5060063;28;20112;-52
2022/12/03 12:04:34;;;;;;;118.45;48.17;;;2.10;99.90;;;;;;5048435;28;20099;-53
2022/12/03 12:07:00;;;;;;;104.53;47.78;;;2.10;99.90;;;;;;5058493;28;20071;-57
2022/12/03 12:09:53;;;;;;;111.60;46.83;;;2.30;99.90;;;;;;5058973;28;20017;-58
2022/12/03 12:12:30;;;;;;;120.03;49.25;;;2.30;99.90;;;;;;5046225;28;20032;-54
2022/12/03 12:14:57;;;;;;;110.10;46.03;;;2.30;99.90;;;;;;5058265;28;20090;-53
2022/12/03 12:17:33;;;;;;;;;;;2.10;99.90;;;;;;5059817;28;20039;-53
2022/12/03 12:20:12;;;;;;;121.95;46.00;;;2.10;99.90;;;;;;5058167;28;20015;-53
2022/12/03 12:22:38;;;;;;;114.45;47.33;;;2.10;99.90;;;;;;5057846;28;20049;-54
2022/12/03 12:25:28;;;;;;;116.25;48.10;;;2.10;99.90;;;;;;5058868;28;20470;-54
2022/12/03 12:27:54;;;;;;;123.40;52.65;;;2.00;99.90;;;;;;5059627;28;20026;-52
2022/12/03 12:30:21;;;;;;;123.15;50.33;;;2.00;99.90;;;;;;5058035;28;20025;-55
2022/12/03 12:32:52;;;;;;;119.10;49.92;;;1.80;99.90;;;;;;5058533;28;20100;-58
2022/12/03 12:35:26;;;;;;;123.53;53.03;;;1.80;99.90;;;;;;5057431;28;20746;-53
2022/12/03 12:37:55;;;;;;;119.22;50.15;;;1.50;99.90;;;;;;5057419;28;20032;-59
2022/12/03 12:40:26;;;;;;;128.88;50.70;;;1.60;99.90;;;;;;5058448;28;20490;-54
2022/12/03 12:42:59;;;;;;;131.88;52.63;;;1.70;99.90;;;;;;5049912;28;20040;-57
2022/12/03 12:45:32;;;;;;;117.55;51.45;;;1.70;99.90;;;;;;5049824;28;20029;-57
2022/12/03 12:48:21;;;;;;;129.98;51.60;;;1.50;99.90;;;;;;5049903;28;20028;-57
2022/12/03 12:50:50;;;;;;;133.80;53.75;;;1.30;99.90;;;;;;5049933;28;20025;-56
2022/12/03 12:53:25;;;;;;;122.70;50.92;;;1.20;99.90;;;;;;5049579;28;20075;-53
2022/12/03 12:55:59;;;;;;;142.80;56.08;;;1.20;99.90;;;;;;5049438;28;20740;-53
2022/12/03 12:58:29;;;;;;;146.27;56.33;;;1.30;99.90;;;;;;5049853;28;20610;-56
2022/12/03 13:01:02;;;;;;;139.88;56.85;;;1.20;99.90;;;;;;5049548;28;20507;-58